Airport View

Enter AWOS ICAO identifier for current METAR.

ex. KFNL

KHWY 280115Z AUTO 00000KT 1/2SM FG BKN002 16/15 A2992 RMK AO2 T01640149

28 Sep 2020 01:21

Frequency: 120.350

Phone: 540-788-4078

Other Area AWOS: KCJR - KHEF - KRMN - KNYG

TAF KNYG 2715/2815 VRB05KT 9999 BKN020 BKN040 QNH2988INS TEMPO 2806/2812 8000 -RA BR BKN010 OVC020 T23/2721Z T16/2811Z LAST NO AMENDS UNTIL 2809